Time;durP1;ratioP1;P1;durP2;ratioP2;P2;SDS_P1;SDS_P2;PMS_P1;PMS_P2;Temp;Humidity;BMP_temperature;BMP_pressure;BME280_temperature;BME280_humidity;BME280_pressure;Samples;Min_cycle;Max_cycle;Signal;HPM_P1;HPM_P2
2023/12/16 00:04:18;;;;;;;1999.90;999.90;;;;;;;14.17;55.66;103753.38;10456095;28;20041;-68
2023/12/16 00:09:20;;;;;;;1999.90;999.90;;;;;;;13.62;56.69;103742.44;10454719;28;20124;-69
2023/12/16 00:14:23;;;;;;;1999.90;999.90;;;;;;;13.50;57.00;103739.19;10455564;28;20503;-68
2023/12/16 00:19:25;;;;;;;1999.90;999.90;;;;;;;13.57;57.01;103738.13;10455760;28;20127;-68
2023/12/16 00:24:27;;;;;;;1999.90;999.90;;;;;;;12.94;58.48;103731.56;10454229;28;20049;-68
2023/12/16 00:29:30;;;;;;;1999.90;999.90;;;;;;;13.47;58.03;103741.88;10455379;28;20496;-69
2023/12/16 00:34:33;;;;;;;1999.90;999.90;;;;;;;14.62;55.63;103724.09;10456921;28;20056;-69
2023/12/16 00:39:35;;;;;;;1999.90;999.90;;;;;;;13.96;57.86;103726.69;10463146;28;20052;-69
2023/12/16 00:44:38;;;;;;;1999.90;999.90;;;;;;;13.81;57.55;103734.97;10462639;28;20044;-68
2023/12/16 00:49:40;;;;;;;1999.90;999.90;;;;;;;14.77;55.55;103733.34;10462464;28;20056;-69
2023/12/16 00:54:42;;;;;;;1999.90;999.90;;;;;;;14.25;56.53;103741.72;10462276;28;20056;-69
2023/12/16 00:59:45;;;;;;;1999.90;999.90;;;;;;;14.13;57.02;103739.41;10462063;28;20057;-68
2023/12/16 01:04:47;;;;;;;1999.90;999.90;;;;;;;14.59;56.98;103724.16;10461960;28;20055;-68
2023/12/16 01:09:53;;;;;;;1999.90;999.90;;;;;;;12.86;59.45;103724.75;10461660;28;20587;-69
2023/12/16 01:14:55;;;;;;;1999.90;999.90;;;;;;;13.88;59.02;103716.31;10460352;28;20052;-69
2023/12/16 01:19:58;;;;;;;1999.90;999.90;;;;;;;13.75;58.36;103720.16;10460266;28;20123;-69
2023/12/16 01:25:00;;;;;;;1999.90;999.90;;;;;;;13.76;60.19;103727.16;10459884;28;20041;-69
2023/12/16 01:30:03;;;;;;;1999.90;999.90;;;;;;;13.49;57.94;103729.53;10461084;28;20045;-68
2023/12/16 01:35:06;;;;;;;1999.90;999.90;;;;;;;13.63;58.96;103718.69;10459657;28;20128;-69
2023/12/16 01:40:09;;;;;;;1999.90;999.90;;;;;;;14.06;58.42;103714.13;10460634;28;20131;-68
2023/12/16 01:45:13;;;;;;;1999.90;999.90;;;;;;;14.25;56.57;103703.97;10459035;28;20045;-69
2023/12/16 01:50:16;;;;;;;1999.90;999.90;;;;;;;14.09;58.77;103707.03;10458982;28;20080;-68
2023/12/16 01:55:19;;;;;;;1999.90;999.90;;;;;;;13.42;60.46;103709.53;10460141;28;20049;-68
2023/12/16 02:00:26;;;;;;;1999.90;999.90;;;;;;;13.98;57.85;103706.41;10459687;28;20403;-69
2023/12/16 02:05:29;;;;;;;1999.90;999.90;;;;;;;13.37;57.54;103725.44;10458277;28;20045;-68
2023/12/16 02:10:31;;;;;;;1999.90;999.90;;;;;;;14.19;57.22;103722.56;10458260;28;20049;-69
2023/12/16 02:15:33;;;;;;;1999.90;999.90;;;;;;;13.28;58.89;103732.63;10459094;28;20407;-69
2023/12/16 02:20:36;;;;;;;1999.90;999.90;;;;;;;13.53;58.60;103728.59;10458909;28;20052;-69
2023/12/16 02:25:39;;;;;;;1999.90;999.90;;;;;;;13.27;59.75;103723.00;10457429;28;20049;-68
2023/12/16 02:30:42;;;;;;;1999.90;999.90;;;;;;;12.93;60.20;103718.47;10458570;28;20499;-68
2023/12/16 02:35:44;;;;;;;1999.90;999.90;;;;;;;13.45;60.26;103708.59;10458472;28;20073;-69
2023/12/16 02:40:48;;;;;;;1999.90;999.90;;;;;;;12.43;63.26;103710.69;10458305;28;20063;-68
2023/12/16 02:45:50;;;;;;;1999.90;999.90;;;;;;;13.29;59.50;103713.31;10458057;28;20539;-68
2023/12/16 02:50:52;;;;;;;1999.90;999.90;;;;;;;12.92;59.44;103716.75;10457678;28;20052;-68
2023/12/16 02:55:55;;;;;;;1999.90;999.90;;;;;;;12.89;60.48;103719.44;10457717;28;20053;-68
2023/12/16 03:00:59;;;;;;;1999.90;999.90;;;;;;;12.87;60.31;103706.31;10455263;28;20059;-68
2023/12/16 03:06:06;;;;;;;1999.90;999.90;;;;;;;12.86;59.97;103707.22;10457260;28;20102;-69
2023/12/16 03:11:08;;;;;;;1999.90;999.90;;;;;;;12.18;61.19;103715.53;10439465;28;20083;-68
2023/12/16 03:16:11;;;;;;;1999.90;999.90;;;;;;;12.88;60.21;103702.78;10457190;28;20055;-68
2023/12/16 03:21:13;;;;;;;1999.90;999.90;;;;;;;12.30;60.95;103701.31;10456738;28;20521;-68
2023/12/16 03:26:16;;;;;;;1999.90;999.90;;;;;;;12.66;60.99;103691.84;10455478;28;20045;-68
2023/12/16 03:31:18;;;;;;;1999.90;999.90;;;;;;;12.53;61.21;103690.38;10457187;28;20123;-69
2023/12/16 03:36:20;;;;;;;1999.90;999.90;;;;;;;12.42;61.02;103696.69;10455366;28;20081;-68
2023/12/16 03:41:23;;;;;;;1999.90;999.90;;;;;;;12.18;61.42;103694.50;10456254;28;20478;-68
2023/12/16 03:46:25;;;;;;;1999.90;999.90;;;;;;;11.44;63.02;103695.69;10438877;28;20075;-68
2023/12/16 03:51:28;;;;;;;1999.90;999.90;;;;;;;12.84;60.17;103685.34;10455931;28;20052;-69
2023/12/16 03:56:31;;;;;;;1999.90;999.90;;;;;;;12.56;61.17;103682.44;10456671;28;20059;-69
2023/12/16 04:01:33;;;;;;;1999.90;999.90;;;;;;;12.10;61.53;103689.38;10454798;28;20052;-68
2023/12/16 04:06:36;;;;;;;1999.90;999.90;;;;;;;12.13;61.91;103696.34;10455726;28;20146;-68
2023/12/16 04:11:46;;;;;;;1999.90;999.90;;;;;;;12.41;60.95;103692.31;10459760;28;20516;-69
2023/12/16 04:16:49;;;;;;;1999.90;999.90;;;;;;;12.29;60.65;103699.56;10462659;28;20568;-68
2023/12/16 04:21:51;;;;;;;1999.90;999.90;;;;;;;11.87;61.79;103700.28;10463748;28;20052;-68
2023/12/16 04:26:55;;;;;;;1999.90;999.90;;;;;;;11.76;61.06;103692.56;10463592;28;20048;-68
2023/12/16 04:31:57;;;;;;;1999.90;999.90;;;;;;;11.75;61.32;103696.09;10463505;28;20052;-68
2023/12/16 04:37:00;;;;;;;1999.90;999.90;;;;;;;12.15;62.00;103705.06;10463155;28;20128;-68
2023/12/16 04:42:02;;;;;;;1999.90;999.90;;;;;;;12.35;60.78;103684.56;10462174;28;20103;-68
2023/12/16 04:47:05;;;;;;;1999.90;999.90;;;;;;;12.35;60.85;103692.44;10461546;28;20051;-68
2023/12/16 04:52:07;;;;;;;1999.90;999.90;;;;;;;12.85;61.54;103692.34;10462354;28;20511;-68
2023/12/16 04:57:10;;;;;;;1999.90;999.90;;;;;;;12.78;61.98;103688.09;10462576;28;20049;-68
2023/12/16 05:02:12;;;;;;;1999.90;999.90;;;;;;;12.29;60.98;103689.94;10462072;28;20049;-68
2023/12/16 05:07:15;;;;;;;1999.90;999.90;;;;;;;12.80;60.21;103700.31;10460788;28;20049;-68
2023/12/16 05:12:17;;;;;;;1999.90;999.90;;;;;;;12.68;59.65;103697.94;10462178;28;20052;-69
2023/12/16 05:17:37;;;;;;;1999.90;999.90;;;;;;;11.99;62.40;103700.09;10460712;28;20049;-68
2023/12/16 05:22:40;;;;;;;1999.90;999.90;;;;;;;12.49;61.94;103696.56;10459430;28;20049;-68
2023/12/16 05:27:42;;;;;;;1999.90;999.90;;;;;;;12.80;60.62;103696.81;10460084;28;20120;-68
2023/12/16 05:32:45;;;;;;;1999.90;999.90;;;;;;;11.94;62.73;103712.44;10460871;28;20128;-68
2023/12/16 05:37:48;;;;;;;1999.90;999.90;;;;;;;11.82;64.51;103700.34;10459978;28;20072;-68
2023/12/16 05:42:50;;;;;;;1999.90;999.90;;;;;;;11.98;62.45;103706.22;10459867;28;20068;-68
2023/12/16 05:47:53;;;;;;;1999.90;999.90;;;;;;;11.98;64.30;103694.84;10459489;28;20045;-68
2023/12/16 05:52:55;;;;;;;1999.90;999.90;;;;;;;12.51;63.04;103682.50;10460123;28;20381;-68
2023/12/16 05:57:57;;;;;;;1999.90;999.90;;;;;;;11.91;64.39;103680.97;10459166;28;20078;-69
2023/12/16 06:03:00;;;;;;;1999.90;999.90;;;;;;;11.87;64.70;103663.53;10459397;28;20065;-68
2023/12/16 06:08:03;;;;;;;1999.90;999.90;;;;;;;12.21;64.59;103657.69;10459890;28;20506;-68
2023/12/16 06:13:06;;;;;;;1999.90;999.90;;;;;;;11.76;66.09;103679.44;10458161;28;20574;-68
2023/12/16 06:18:08;;;;;;;1999.90;999.90;;;;;;;11.25;67.55;103676.72;10459220;28;20155;-68
2023/12/16 06:23:11;;;;;;;1999.90;999.90;;;;;;;12.02;65.95;103673.78;10458282;28;20488;-68
2023/12/16 06:28:13;;;;;;;1999.90;999.90;;;;;;;11.61;67.10;103677.91;10457613;28;20045;-69
2023/12/16 06:33:15;;;;;;;1999.90;999.90;;;;;;;11.79;66.56;103683.78;10458333;28;20051;-67
2023/12/16 06:38:18;;;;;;;1999.90;999.90;;;;;;;12.26;64.58;103688.22;10458439;28;20056;-68
2023/12/16 06:43:20;;;;;;;1999.90;999.90;;;;;;;11.77;66.76;103690.78;10458228;28;20127;-68
2023/12/16 06:48:23;;;;;;;1999.90;999.90;;;;;;;11.83;66.71;103691.56;10440117;28;20052;-68
2023/12/16 06:53:25;;;;;;;1999.90;999.90;;;;;;;11.43;67.67;103692.22;10457968;28;20107;-68
2023/12/16 06:58:28;;;;;;;1999.90;999.90;;;;;;;11.98;65.43;103694.84;10457469;28;20124;-68
2023/12/16 07:03:30;;;;;;;1999.90;999.90;;;;;;;11.95;66.47;103695.75;10457535;28;20416;-67
2023/12/16 07:08:35;;;;;;;1999.90;999.90;;;;;;;12.14;65.37;103704.22;10457176;28;20052;-68
2023/12/16 07:13:37;;;;;;;1999.90;999.90;;;;;;;11.70;65.85;103714.53;10457593;28;20049;-67
2023/12/16 07:18:39;;;;;;;1999.90;999.90;;;;;;;11.88;65.22;103720.38;10455922;28;20045;-68
2023/12/16 07:23:42;;;;;;;1999.90;999.90;;;;;;;12.06;65.71;103721.84;10456856;28;20098;-68
2023/12/16 07:28:44;;;;;;;1999.90;999.90;;;;;;;11.82;66.84;103726.59;10456831;28;20045;-68
2023/12/16 07:33:46;;;;;;;1999.90;999.90;;;;;;;11.79;65.24;103729.25;10456631;28;20476;-68
2023/12/16 07:38:49;;;;;;;1999.90;999.90;;;;;;;11.84;66.02;103730.06;10455469;28;20049;-68
2023/12/16 07:43:51;;;;;;;1999.90;999.90;;;;;;;11.98;64.89;103737.72;10456157;28;20057;-68
2023/12/16 07:48:54;;;;;;;1999.90;999.90;;;;;;;12.16;64.97;103744.44;10456109;28;20045;-67
2023/12/16 07:53:56;;;;;;;1999.90;999.90;;;;;;;11.46;66.21;103744.59;10456263;28;20132;-67
2023/12/16 07:59:02;;;;;;;1999.90;999.90;;;;;;;12.03;65.89;103743.78;10456293;28;20060;-67
2023/12/16 08:04:04;;;;;;;1999.90;999.90;;;;;;;11.75;67.13;103747.69;10456405;28;20127;-67
2023/12/16 08:09:06;;;;;;;1999.90;999.90;;;;;;;11.67;66.66;103739.97;10468014;22;20499;-70
2023/12/16 08:14:09;;;;;;;1999.90;999.90;;;;;;;11.83;66.77;103743.19;10455934;28;20060;-70
2023/12/16 08:19:11;;;;;;;1999.90;999.90;;;;;;;11.68;66.17;103734.69;10455066;28;20052;-70
2023/12/16 08:24:14;;;;;;;1999.90;999.90;;;;;;;12.23;65.54;103737.31;10455417;28;20045;-70
2023/12/16 08:29:18;;;;;;;1999.90;999.90;;;;;;;11.75;66.62;103727.59;10454480;28;20063;-69
2023/12/16 08:34:22;;;;;;;1999.90;999.90;;;;;;;11.43;67.96;103736.81;10455375;28;20084;-69
2023/12/16 08:39:24;;;;;;;1999.90;999.90;;;;;;;12.11;66.31;103733.16;10455772;28;20056;-69
2023/12/16 08:44:27;;;;;;;1999.90;999.90;;;;;;;12.24;65.17;103744.31;10455186;28;20052;-70
2023/12/16 08:49:29;;;;;;;1999.90;999.90;;;;;;;12.51;65.34;103753.47;10454185;28;20055;-69
2023/12/16 08:54:32;;;;;;;1999.90;999.90;;;;;;;11.83;67.60;103751.06;10453978;28;20044;-70
2023/12/16 08:59:35;;;;;;;1999.90;999.90;;;;;;;12.18;67.09;103753.16;10460779;28;20515;-70
2023/12/16 09:04:37;;;;;;;1999.90;999.90;;;;;;;12.52;65.70;103747.28;10461000;28;20148;-70
2023/12/16 09:09:40;;;;;;;1999.90;999.90;;;;;;;12.48;66.41;103745.63;10462125;28;20103;-70
2023/12/16 09:14:42;;;;;;;1999.90;999.90;;;;;;;12.76;66.29;103745.97;10460758;28;20041;-70
2023/12/16 09:19:45;;;;;;;1999.90;999.90;;;;;;;12.51;66.76;103750.84;10461595;28;20052;-70
2023/12/16 09:24:48;;;;;;;1999.90;999.90;;;;;;;13.39;65.06;103762.25;10461108;28;20045;-70
2023/12/16 09:29:50;;;;;;;1999.90;999.90;;;;;;;12.42;66.69;103770.28;10461300;28;20044;-70
2023/12/16 09:34:53;;;;;;;1999.90;999.90;;;;;;;13.24;65.53;103780.97;10460958;28;20049;-70
2023/12/16 09:39:55;;;;;;;1999.90;999.90;;;;;;;13.15;67.45;103789.91;10460617;28;20048;-70
2023/12/16 09:44:58;;;;;;;1999.90;999.90;;;;;;;12.75;68.54;103802.06;10460598;28;20115;-70
2023/12/16 09:50:00;;;;;;;1999.90;999.90;;;;;;;13.01;68.94;103803.31;10459133;28;20127;-70
2023/12/16 09:55:04;;;;;;;1999.90;999.90;;;;;;;12.92;69.37;103811.41;10460193;28;20071;-70
2023/12/16 10:00:07;;;;;;;1999.90;999.90;;;;;;;13.46;68.35;103798.03;10458954;28;20049;-70
2023/12/16 10:05:10;;;;;;;1999.90;999.90;;;;;;;12.86;70.25;103824.66;10458434;28;20498;-70
2023/12/16 10:10:15;;;;;;;1999.90;999.90;;;;;;;13.30;69.21;103821.16;10458151;28;20053;-70
2023/12/16 10:15:34;;;;;;;1999.90;999.90;;;;;;;13.06;70.28;103842.69;10459348;28;20083;-70
2023/12/16 10:20:36;;;;;;;1999.90;999.90;;;;;;;13.51;69.72;103833.03;10459000;28;20049;-70
2023/12/16 10:25:40;;;;;;;1999.90;999.90;;;;;;;13.60;67.77;103816.19;10459113;28;20129;-70
2023/12/16 10:30:42;;;;;;;1999.90;999.90;;;;;;;12.82;69.68;103813.34;10458703;28;20070;-70
2023/12/16 10:35:46;;;;;;;1999.90;999.90;;;;;;;14.36;65.59;103814.41;10458481;28;20053;-70
2023/12/16 10:40:50;;;;;;;1999.90;999.90;;;;;;;13.43;70.05;103811.28;10458416;28;20052;-70
2023/12/16 10:45:54;;;;;;;1999.90;999.90;;;;;;;13.72;69.00;103802.75;10456860;28;20045;-70
2023/12/16 10:50:57;;;;;;;1999.90;999.90;;;;;;;14.19;67.67;103805.16;10457116;28;20049;-70
2023/12/16 10:56:02;;;;;;;1999.90;999.90;;;;;;;14.19;68.80;103807.78;10456440;28;20049;-70
2023/12/16 11:01:09;;;;;;;1999.90;999.90;;;;;;;14.21;68.85;103790.16;10456628;28;20474;-70
2023/12/16 11:06:16;;;;;;;1999.90;999.90;;;;;;;14.26;69.67;103797.94;10456141;28;20128;-69
2023/12/16 11:11:19;;;;;;;1999.90;999.90;;;;;;;14.22;70.36;103785.75;10457616;28;20063;-70
2023/12/16 11:16:50;;;;;;;1999.90;999.90;;;;;;;14.54;69.23;103777.00;10457405;28;20052;-70
2023/12/16 11:21:52;;;;;;;1999.90;999.90;;;;;;;14.15;70.25;103768.34;10455052;28;20049;-70
2023/12/16 11:26:55;;;;;;;1999.90;999.90;;;;;;;14.61;68.83;103762.78;10456613;28;20063;-70
2023/12/16 11:31:58;;;;;;;1999.90;999.90;;;;;;;14.10;70.88;103764.09;10456573;28;20132;-70
2023/12/16 11:37:02;;;;;;;1999.90;999.90;;;;;;;14.77;69.24;103751.81;10455282;28;20461;-70
2023/12/16 11:42:10;;;;;;;1999.90;999.90;;;;;;;14.56;69.10;103738.28;10455333;28;20458;-70
2023/12/16 11:47:25;;;;;;;1999.90;999.90;;;;;;;14.88;70.10;103746.22;10455332;28;20049;-70
2023/12/16 11:52:28;;;;;;;1999.90;999.90;;;;;;;15.14;66.72;103741.03;10438601;28;20415;-70
2023/12/16 11:57:30;;;;;;;1999.90;999.90;;;;;;;14.18;73.08;103732.25;10456072;28;20045;-70
2023/12/16 12:02:32;;;;;;;1999.90;999.90;;;;;;;14.41;70.26;103710.56;10456003;28;20049;-70
2023/12/16 12:07:35;;;;;;;1999.90;999.90;;;;;;;14.07;73.72;103723.75;10455659;28;20503;-70
2023/12/16 12:12:38;;;;;;;1999.90;999.90;;;;;;;14.22;71.87;103709.31;10456375;28;20057;-70
2023/12/16 12:17:40;;;;;;;1999.90;999.90;;;;;;;14.02;75.47;103718.63;10455676;28;20391;-70
2023/12/16 12:22:43;;;;;;;1999.90;999.90;;;;;;;15.16;70.85;103704.06;10454433;28;20553;-70
2023/12/16 12:27:47;;;;;;;1999.90;999.90;;;;;;;14.52;73.51;103712.91;10454369;28;20049;-70
2023/12/16 12:32:50;;;;;;;1999.90;999.90;;;;;;;14.43;75.24;103700.00;10459803;28;20102;-70
2023/12/16 12:37:53;;;;;;;1999.90;999.90;;;;;;;14.25;75.50;103694.28;10462106;28;20045;-70
2023/12/16 12:43:00;;;;;;;1999.90;999.90;;;;;;;14.68;75.20;103673.81;10463557;28;20048;-70
2023/12/16 12:48:13;;;;;;;1999.90;999.90;;;;;;;15.37;69.78;103668.22;10463200;28;20049;-70
2023/12/16 12:53:20;;;;;;;1999.90;999.90;;;;;;;14.58;74.45;103657.38;10461479;28;20135;-70
2023/12/16 12:58:29;;;;;;;1999.90;999.90;;;;;;;14.46;73.53;103657.72;10461339;28;20403;-70
2023/12/16 13:03:33;;;;;;;1999.90;999.90;;;;;;;14.80;74.08;103654.13;10460970;28;20053;-70
2023/12/16 13:08:37;;;;;;;1999.90;999.90;;;;;;;14.96;71.66;103643.97;10461856;28;20087;-70
2023/12/16 13:13:39;;;;;;;1999.90;999.90;;;;;;;14.30;79.93;103650.22;10461902;28;20079;-70
2023/12/16 13:18:42;;;;;;;1999.90;999.90;;;;;;;14.45;75.24;103641.03;10461802;28;20049;-70
2023/12/16 13:23:45;;;;;;;1999.90;999.90;;;;;;;14.62;74.89;103635.28;10461738;28;20052;-70
2023/12/16 13:28:48;;;;;;;1999.90;999.90;;;;;;;15.04;72.13;103637.53;10459877;28;20534;-70
2023/12/16 13:33:50;;;;;;;1999.90;999.90;;;;;;;14.35;76.34;103631.66;10460998;28;20411;-70
2023/12/16 13:38:54;;;;;;;1999.90;999.90;;;;;;;15.07;75.24;103633.09;10460743;28;20132;-70
2023/12/16 13:43:56;;;;;;;1999.90;999.90;;;;;;;15.04;72.67;103628.78;10458789;28;20060;-70
2023/12/16 13:49:00;;;;;;;1999.90;999.90;;;;;;;15.27;73.08;103635.13;10460523;28;20049;-70
2023/12/16 13:54:06;;;;;;;1999.90;999.90;;;;;;;14.29;75.53;103627.44;10459084;28;20074;-70
2023/12/16 13:59:09;;;;;;;1999.90;999.90;;;;;;;14.54;75.17;103637.28;10458955;28;20057;-70
2023/12/16 14:04:11;;;;;;;1999.90;999.90;;;;;;;15.30;72.89;103651.72;10459852;28;20072;-70
2023/12/16 14:09:14;;;;;;;1999.90;999.90;;;;;;;15.12;72.92;103639.94;10459503;28;20080;-70
2023/12/16 14:14:16;;;;;;;1999.90;999.90;;;;;;;14.64;75.78;103643.16;10459564;28;20083;-70
2023/12/16 14:19:20;;;;;;;1999.90;999.90;;;;;;;14.96;74.11;103636.94;10441859;28;20048;-70
2023/12/16 14:24:22;;;;;;;1999.90;999.90;;;;;;;15.56;73.13;103648.19;10459211;28;20053;-70
2023/12/16 14:29:24;;;;;;;1999.90;999.90;;;;;;;14.58;76.99;103641.53;10458785;28;20047;-70
2023/12/16 14:34:27;;;;;;;1999.90;999.90;;;;;;;14.83;75.77;103638.22;10458770;28;20053;-71
2023/12/16 14:39:29;;;;;;;1999.90;999.90;;;;;;;14.72;77.29;103635.03;10458349;28;20377;-70
2023/12/16 14:44:32;;;;;;;1999.90;999.90;;;;;;;15.22;72.20;103645.81;10458474;28;20128;-70
2023/12/16 14:49:34;;;;;;;1999.90;999.90;;;;;;;15.95;69.04;103636.34;10458496;28;20053;-70
2023/12/16 14:54:37;;;;;;;1999.90;999.90;;;;;;;14.39;76.51;103633.31;10456784;28;20107;-70
2023/12/16 14:59:39;;;;;;;1999.90;999.90;;;;;;;15.31;74.56;103627.03;10457690;28;20472;-70
2023/12/16 15:04:43;;;;;;;1999.90;999.90;;;;;;;14.55;77.49;103611.78;10457519;28;20064;-70
2023/12/16 15:09:45;;;;;;;1999.90;999.90;;;;;;;15.33;75.98;103603.22;10456173;28;20055;-70
2023/12/16 15:14:47;;;;;;;1999.90;999.90;;;;;;;15.72;71.65;103589.59;10457565;28;20057;-70
2023/12/16 15:19:50;;;;;;;1999.90;999.90;;;;;;;15.03;73.47;103583.06;10457230;28;20045;-70
2023/12/16 15:24:52;;;;;;;1999.90;999.90;;;;;;;14.61;75.50;103583.50;10456655;28;20064;-70
2023/12/16 15:29:54;;;;;;;1999.90;999.90;;;;;;;15.12;76.19;103581.91;10456805;28;20047;-70
2023/12/16 15:34:59;;;;;;;1999.90;999.90;;;;;;;15.40;72.28;103600.34;10456749;28;20063;-70
2023/12/16 15:40:04;;;;;;;1999.90;999.90;;;;;;;15.07;76.14;103599.66;10455273;28;20080;-70
2023/12/16 15:45:06;;;;;;;1999.90;999.90;;;;;;;14.49;77.02;103599.63;10456283;28;20051;-70
2023/12/16 15:50:09;;;;;;;1999.90;999.90;;;;;;;14.28;78.34;103614.31;10455145;28;20057;-70
2023/12/16 15:55:12;;;;;;;1999.90;999.90;;;;;;;14.67;76.24;103621.97;10456397;28;20052;-70
2023/12/16 16:00:14;;;;;;;1999.90;999.90;;;;;;;14.94;73.45;103624.69;10456064;28;20045;-70
2023/12/16 16:05:17;;;;;;;1999.90;999.90;;;;;;;15.37;75.82;103631.25;10455993;28;20061;-70
2023/12/16 16:10:20;;;;;;;1999.90;999.90;;;;;;;15.53;73.22;103629.84;10464627;28;20095;-70
2023/12/16 16:15:24;;;;;;;1999.90;999.90;;;;;;;14.90;73.94;103638.91;10464636;28;20087;-70
2023/12/16 16:20:27;;;;;;;1999.90;999.90;;;;;;;15.30;74.61;103638.50;10462939;28;20049;-70
2023/12/16 16:25:29;;;;;;;1999.90;999.90;;;;;;;14.96;77.12;103634.31;10462466;28;20044;-70
2023/12/16 16:30:32;;;;;;;1999.90;999.90;;;;;;;14.47;77.13;103638.34;10463524;28;20136;-70
2023/12/16 16:35:34;;;;;;;1999.90;999.90;;;;;;;14.92;77.62;103623.88;10463337;28;20041;-70
2023/12/16 16:40:37;;;;;;;1999.90;999.90;;;;;;;14.97;77.56;103636.00;10461895;28;20057;-70
2023/12/16 16:45:39;;;;;;;1999.90;999.90;;;;;;;14.70;78.82;103634.22;10463000;28;20049;-70
2023/12/16 16:50:47;;;;;;;1999.90;999.90;;;;;;;15.58;75.02;103635.84;10462680;28;20049;-70
2023/12/16 16:55:50;;;;;;;1999.90;999.90;;;;;;;15.08;77.08;103635.69;10462783;28;20132;-70
2023/12/16 17:00:53;;;;;;;1999.90;999.90;;;;;;;15.45;76.57;103654.75;10462423;28;20057;-70
2023/12/16 17:05:56;;;;;;;1999.90;999.90;;;;;;;15.12;76.83;103637.31;10460831;28;20091;-70
2023/12/16 17:10:59;;;;;;;1999.90;999.90;;;;;;;15.07;74.70;103641.03;10462438;28;20057;-70
2023/12/16 17:16:02;;;;;;;1999.90;999.90;;;;;;;14.54;80.25;103634.66;10460020;28;20049;-70
2023/12/16 17:21:05;;;;;;;1999.90;999.90;;;;;;;15.02;79.09;103615.63;10461571;28;20468;-70
2023/12/16 17:26:08;;;;;;;1999.90;999.90;;;;;;;14.44;79.17;103606.81;10461285;28;20488;-70
2023/12/16 17:31:11;;;;;;;1999.90;999.90;;;;;;;14.12;82.42;103606.81;10460217;28;20057;-70
2023/12/16 17:36:13;;;;;;;1999.90;999.90;;;;;;;14.64;81.72;103615.03;10460977;28;20053;-70
2023/12/16 17:41:16;;;;;;;1999.90;999.90;;;;;;;14.61;82.73;103619.56;10460751;28;20056;-70
2023/12/16 17:46:18;;;;;;;1999.90;999.90;;;;;;;13.81;86.74;103598.88;10460647;28;20049;-70
2023/12/16 17:51:21;;;;;;;1999.90;999.90;;;;;;;14.05;86.37;103614.94;10460993;28;20045;-70
2023/12/16 17:56:26;;;;;;;1999.90;999.90;;;;;;;14.80;81.62;103639.16;10460363;28;20041;-70
2023/12/16 18:01:28;;;;;;;1999.90;999.90;;;;;;;15.45;77.20;103639.78;10458909;28;20143;-70
2023/12/16 18:06:31;;;;;;;1999.90;999.90;;;;;;;15.31;75.50;103634.94;10459989;28;20124;-70
2023/12/16 18:11:40;;;;;;;1999.90;999.90;;;;;;;14.92;78.52;103637.06;10458796;28;20053;-70
2023/12/16 18:16:44;;;;;;;1999.90;999.90;;;;;;;15.29;77.56;103636.78;10458843;28;20073;-70
2023/12/16 18:21:46;;;;;;;1999.90;999.90;;;;;;;15.15;77.31;103654.84;10459296;28;20057;-70
2023/12/16 18:26:48;;;;;;;1999.90;999.90;;;;;;;14.72;77.76;103650.84;10458767;28;20394;-70
2023/12/16 18:31:51;;;;;;;1999.90;999.90;;;;;;;14.80;78.67;103639.16;10457260;28;20053;-70
2023/12/16 18:36:53;;;;;;;1999.90;999.90;;;;;;;15.09;80.67;103613.66;10458481;28;20560;-70
2023/12/16 18:41:56;;;;;;;1999.90;999.90;;;;;;;14.39;84.21;103606.06;10458402;28;20056;-70
2023/12/16 18:46:58;;;;;;;1999.90;999.90;;;;;;;14.94;81.63;103595.69;10458576;28;20401;-70
2023/12/16 18:52:00;;;;;;;1999.90;999.90;;;;;;;14.97;80.26;103625.47;10457989;28;20053;-70
2023/12/16 18:57:03;;;;;;;1999.90;999.90;;;;;;;14.72;79.97;103635.88;10457710;28;20091;-70
2023/12/16 19:02:06;;;;;;;1999.90;999.90;;;;;;;14.93;79.42;103638.78;10457530;28;20057;-70
2023/12/16 19:07:08;;;;;;;1999.90;999.90;;;;;;;14.13;82.77;103637.50;10455954;28;20560;-70
2023/12/16 19:12:11;;;;;;;1999.90;999.90;;;;;;;15.21;79.02;103644.94;10456125;28;20053;-70
2023/12/16 19:17:13;;;;;;;1999.90;999.90;;;;;;;14.35;83.69;103662.44;10455823;28;20101;-70
2023/12/16 19:22:16;;;;;;;1999.90;999.90;;;;;;;15.93;76.16;103654.91;10439357;28;20070;-70
2023/12/16 19:27:19;;;;;;;1999.90;999.90;;;;;;;16.31;72.90;103650.03;10456798;28;20045;-70
2023/12/16 19:32:22;;;;;;;1999.90;999.90;;;;;;;15.64;75.98;103662.94;10457169;28;20385;-70
2023/12/16 19:37:24;;;;;;;1999.90;999.90;;;;;;;15.51;75.18;103652.78;10455315;28;20480;-70
2023/12/16 19:42:26;;;;;;;1999.90;999.90;;;;;;;16.57;71.86;103652.66;10455674;28;20463;-70
2023/12/16 19:47:29;;;;;;;1999.90;999.90;;;;;;;15.87;72.06;103664.81;10456200;28;20049;-70
2023/12/16 19:52:31;;;;;;;1999.90;999.90;;;;;;;15.91;73.93;103662.03;10456201;28;20052;-70
2023/12/16 19:57:34;;;;;;;1999.90;999.90;;;;;;;15.66;78.68;103669.88;10455137;28;20103;-70
2023/12/16 20:02:36;;;;;;;1999.90;999.90;;;;;;;15.83;77.52;103672.00;10456391;28;20053;-70
2023/12/16 20:07:39;;;;;;;1999.90;999.90;;;;;;;15.20;77.22;103676.66;10455907;28;20056;-70
2023/12/16 20:12:41;;;;;;;1999.90;999.90;;;;;;;15.69;76.29;103692.72;10455808;28;20111;-70
2023/12/16 20:17:44;;;;;;;1999.90;999.90;;;;;;;17.12;68.95;103687.59;10438159;28;20048;-70
2023/12/16 20:22:47;;;;;;;1999.90;999.90;;;;;;;16.82;70.75;103679.88;10468565;22;20049;-69
2023/12/16 20:27:50;;;;;;;1999.90;999.90;;;;;;;16.18;71.26;103700.78;10454343;28;20155;-69
2023/12/16 20:32:52;;;;;;;1999.90;999.90;;;;;;;16.30;74.66;103690.59;10455469;28;20079;-69
2023/12/16 20:37:59;;;;;;;1999.90;999.90;;;;;;;16.08;75.59;103685.22;10455512;28;20056;-69
2023/12/16 20:43:03;;;;;;;1999.90;999.90;;;;;;;16.62;73.54;103672.69;10455655;28;20144;-69
2023/12/16 20:48:06;;;;;;;1999.90;999.90;;;;;;;15.88;73.75;103677.13;10454360;28;20132;-69
2023/12/16 20:53:09;;;;;;;1999.90;999.90;;;;;;;17.45;69.23;103673.94;10459439;28;20052;-68
2023/12/16 20:58:11;;;;;;;1999.90;999.90;;;;;;;15.73;75.84;103676.69;10462567;28;20423;-69
2023/12/16 21:03:14;;;;;;;1999.90;999.90;;;;;;;15.92;74.13;103674.34;10461277;28;20049;-69
2023/12/16 21:08:16;;;;;;;1999.90;999.90;;;;;;;16.30;72.47;103685.31;10462278;28;20128;-69
2023/12/16 21:13:19;;;;;;;1999.90;999.90;;;;;;;16.38;71.11;103673.63;10460844;28;20474;-69
2023/12/16 21:18:21;;;;;;;1999.90;999.90;;;;;;;15.89;73.82;103686.78;10462060;28;20051;-69
2023/12/16 21:23:24;;;;;;;1999.90;999.90;;;;;;;16.50;72.05;103678.47;10460443;28;20559;-69
2023/12/16 21:28:27;;;;;;;1999.90;999.90;;;;;;;15.39;78.62;103687.50;10460158;28;20048;-70
2023/12/16 21:33:29;;;;;;;1999.90;999.90;;;;;;;15.88;75.02;103688.56;10461468;28;20045;-70
2023/12/16 21:38:32;;;;;;;1999.90;999.90;;;;;;;16.12;71.97;103685.97;10460987;28;20053;-70
2023/12/16 21:43:35;;;;;;;1999.90;999.90;;;;;;;16.55;71.47;103678.28;10461048;28;20063;-70
2023/12/16 21:48:40;;;;;;;1999.90;999.90;;;;;;;15.58;74.35;103678.09;10460663;28;20128;-70
2023/12/16 21:53:43;;;;;;;1999.90;999.90;;;;;;;16.35;71.32;103662.22;10460417;28;20443;-70
2023/12/16 21:58:45;;;;;;;1999.90;999.90;;;;;;;16.21;73.87;103664.53;10460327;28;20077;-71